createdAt,value
2022-10-01T00:01:48.120Z,99322.03
2022-10-01T00:06:19.484Z,99318.59
2022-10-01T00:10:21.029Z,99322.28
2022-10-01T00:14:22.890Z,99320.41
2022-10-01T00:18:24.558Z,99332.09
2022-10-01T00:22:26.124Z,99322.53
2022-10-01T00:26:31.365Z,99312.38
2022-10-01T00:30:37.253Z,99312.97
2022-10-01T00:34:41.238Z,99305.88
2022-10-01T00:38:42.773Z,99287.69
2022-10-01T00:42:44.558Z,99285.50
2022-10-01T00:46:46.571Z,99273.16
2022-10-01T00:50:49.937Z,99275.66
2022-10-01T00:55:03.627Z,99274.84
2022-10-01T00:59:07.123Z,99275.44
2022-10-01T01:03:11.029Z,99273.53
2022-10-01T01:07:13.064Z,99270.28
2022-10-01T01:11:33.193Z,99274.97
2022-10-01T01:16:00.393Z,99260.94
2022-10-01T01:20:06.352Z,99256.53
2022-10-01T01:24:42.086Z,99257.63
2022-10-01T01:28:50.616Z,99256.56
2022-10-01T01:33:18.494Z,99253.84
2022-10-01T01:37:26.751Z,99249.13
2022-10-01T01:41:31.444Z,99238.72
2022-10-01T01:45:40.077Z,99241.47
2022-10-01T01:49:42.903Z,99227.38
2022-10-01T01:53:44.784Z,99226.53
2022-10-01T01:57:46.707Z,99221.84
2022-10-01T02:01:49.582Z,99221.28
2022-10-01T02:06:11.383Z,99224.53
2022-10-01T02:10:28.535Z,99212.75
2022-10-01T02:14:47.467Z,99202.25
2022-10-01T02:18:59.119Z,99208.31
2022-10-01T02:23:06.217Z,99209.41
2022-10-01T02:27:14.030Z,99210.53
2022-10-01T02:31:18.090Z,99220.41
2022-10-01T02:35:22.015Z,99214.34
2022-10-01T02:39:27.137Z,99200.84
2022-10-01T02:43:39.481Z,99201.09
2022-10-01T02:47:51.120Z,99198.31
2022-10-01T02:52:13.267Z,99189.81
2022-10-01T02:56:35.476Z,99175.47
2022-10-01T03:00:37.033Z,99184.03
2022-10-01T03:04:38.654Z,99182.09
2022-10-01T03:08:53.724Z,99177.41
2022-10-01T03:12:55.931Z,99174.97
2022-10-01T03:16:57.579Z,99169.16
2022-10-01T03:20:59.162Z,99158.41
2022-10-01T03:25:00.715Z,99147.41
2022-10-01T03:29:04.729Z,99141.59
2022-10-01T03:33:06.286Z,99142.16
2022-10-01T03:37:27.909Z,99130.03
2022-10-01T03:41:29.583Z,99132.53
2022-10-01T03:45:31.126Z,99131.16
2022-10-01T03:49:38.765Z,99127.84
2022-10-01T03:53:40.279Z,99121.53
2022-10-01T03:57:50.259Z,99132.53
2022-10-01T04:01:51.900Z,99127.34
2022-10-01T04:05:53.523Z,99138.34
2022-10-01T04:09:55.152Z,99142.75
2022-10-01T04:13:58.010Z,99131.63
2022-10-01T04:18:02.303Z,99136.56
2022-10-01T04:22:03.842Z,99142.78
2022-10-01T04:26:05.572Z,99149.56
2022-10-01T04:30:09.895Z,99142.00
2022-10-01T04:34:11.636Z,99149.06
2022-10-01T04:38:17.167Z,99137.22
2022-10-01T04:42:19.588Z,99135.75
2022-10-01T04:46:21.286Z,99123.03
2022-10-01T04:50:25.634Z,99116.66
2022-10-01T04:54:27.202Z,99108.88
2022-10-01T04:58:28.879Z,99112.16
2022-10-01T05:02:30.648Z,99101.41
2022-10-01T05:06:32.215Z,99096.16
2022-10-01T05:10:34.016Z,99079.09
2022-10-01T05:14:38.983Z,99068.00
2022-10-01T05:18:40.633Z,99061.09
2022-10-01T05:22:42.228Z,99032.50
2022-10-01T05:26:43.787Z,99042.13
2022-10-01T05:30:45.783Z,99032.53
2022-10-01T05:34:52.662Z,99043.81
2022-10-01T05:38:55.167Z,99049.31
2022-10-01T05:43:00.291Z,99051.31
2022-10-01T05:47:02.246Z,99044.41
2022-10-01T05:51:06.889Z,99055.41
2022-10-01T05:55:09.282Z,99047.72
2022-10-01T05:59:12.068Z,99058.78
2022-10-01T06:03:15.103Z,99042.56
2022-10-01T06:07:16.644Z,99057.72
2022-10-01T06:11:18.943Z,99035.16
2022-10-01T06:15:20.568Z,99035.41
2022-10-01T06:19:22.188Z,99028.53
2022-10-01T06:23:26.148Z,99032.41
2022-10-01T06:27:27.790Z,99043.94
2022-10-01T06:31:29.782Z,99035.16
2022-10-01T06:35:32.944Z,99052.22
2022-10-01T06:39:34.464Z,99039.28
2022-10-01T06:43:36.422Z,99044.19
2022-10-01T06:47:38.257Z,99023.53
2022-10-01T06:51:58.727Z,99031.53
2022-10-01T06:56:05.619Z,99040.38
2022-10-01T07:00:08.087Z,99018.59
2022-10-01T07:04:10.644Z,99028.50
2022-10-01T07:08:13.162Z,99024.09
2022-10-01T07:12:14.772Z,99034.53
2022-10-01T07:16:16.591Z,99024.09
2022-10-01T07:20:20.741Z,99023.31
2022-10-01T07:24:22.711Z,99028.53
2022-10-01T07:28:27.320Z,99030.19
2022-10-01T07:32:31.620Z,99036.75
2022-10-01T07:36:33.435Z,99022.22
2022-10-01T07:40:35.144Z,99014.50
2022-10-01T07:44:36.750Z,99002.38
2022-10-01T07:48:38.564Z,99017.56
2022-10-01T07:52:40.168Z,99027.25
2022-10-01T07:56:41.910Z,99019.00
2022-10-01T08:00:43.631Z,99007.66
2022-10-01T08:05:03.531Z,99012.06
2022-10-01T08:09:06.190Z,99009.31
2022-10-01T08:13:14.971Z,99010.97
2022-10-01T08:17:16.676Z,98979.25
2022-10-01T08:21:18.271Z,98985.84
2022-10-01T08:25:19.949Z,98974.03
2022-10-01T08:29:22.204Z,98991.66
2022-10-01T08:33:23.749Z,99002.13
2022-10-01T08:37:27.407Z,99017.81
2022-10-01T08:41:54.878Z,99040.72
2022-10-01T08:46:00.584Z,99021.22
2022-10-01T08:50:39.616Z,99019.31
2022-10-01T08:54:54.906Z,99021.50
2022-10-01T08:59:03.728Z,99016.56
2022-10-01T09:03:06.702Z,99003.91
2022-10-01T09:07:31.089Z,99018.81
2022-10-01T09:11:43.789Z,99025.50
2022-10-01T09:15:56.340Z,99035.19
2022-10-01T09:20:29.332Z,99048.69
2022-10-01T09:24:40.841Z,99045.88
2022-10-01T09:28:52.207Z,99058.81
2022-10-01T09:33:11.680Z,99044.50
2022-10-01T09:37:45.544Z,99051.72
2022-10-01T09:41:48.383Z,99061.41
2022-10-01T09:45:51.607Z,99061.94
2022-10-01T09:49:53.482Z,99064.47
2022-10-01T09:54:09.321Z,99061.69
2022-10-01T09:58:18.486Z,99067.50
2022-10-01T10:02:27.620Z,99069.44
2022-10-01T10:11:01.823Z,99069.19
2022-10-01T10:15:09.801Z,99071.66
2022-10-01T10:19:28.354Z,99081.34
2022-10-01T10:23:30.076Z,99084.94
2022-10-01T10:27:37.874Z,99083.00
2022-10-01T10:31:43.651Z,99083.03
2022-10-01T10:35:45.296Z,99069.81
2022-10-01T10:39:51.214Z,99086.94
2022-10-01T10:44:04.791Z,99092.19
2022-10-01T10:48:14.622Z,99081.16
2022-10-01T10:52:30.176Z,99077.28
2022-10-01T10:56:32.244Z,99078.66
2022-10-01T11:00:43.891Z,99091.94
2022-10-01T11:04:46.156Z,99085.31
2022-10-01T11:08:57.493Z,99085.31
2022-10-01T11:13:32.822Z,99084.78
2022-10-01T11:17:58.701Z,99091.13
2022-10-01T11:22:12.943Z,99095.56
2022-10-01T11:26:29.592Z,99100.78
2022-10-01T11:31:12.831Z,99106.84
2022-10-01T11:35:28.509Z,99110.44
2022-10-01T11:39:34.339Z,99108.56
2022-10-01T11:43:57.650Z,99105.53
2022-10-01T11:48:02.306Z,99100.53
2022-10-01T11:52:14.991Z,99103.00
2022-10-01T11:56:40.588Z,99114.06
2022-10-01T12:00:48.453Z,99118.22
2022-10-01T12:04:58.324Z,99116.28
2022-10-01T12:09:16.929Z,99122.63
2022-10-01T12:13:36.712Z,99116.25
2022-10-01T12:17:46.928Z,99122.34
2022-10-01T12:21:56.724Z,99122.31
2022-10-01T12:26:13.420Z,99123.69
2022-10-01T12:30:23.638Z,99117.00
2022-10-01T12:34:54.247Z,99106.47
2022-10-01T12:39:35.994Z,99118.50
2022-10-01T12:43:43.571Z,99123.69
2022-10-01T12:47:50.099Z,99114.78
2022-10-01T12:52:18.167Z,99104.78
2022-10-01T12:56:39.173Z,99094.66
2022-10-01T13:01:17.850Z,99101.72
2022-10-01T13:05:49.571Z,99108.63
2022-10-01T13:10:06.978Z,99120.94
2022-10-01T13:14:19.078Z,99118.44
2022-10-01T13:19:05.222Z,99109.66
2022-10-01T13:23:24.148Z,99119.66
2022-10-01T13:27:46.745Z,99123.84
2022-10-01T13:32:01.394Z,99129.88
2022-10-01T13:36:05.818Z,99130.56
2022-10-01T13:40:24.546Z,99137.06
2022-10-01T13:44:34.655Z,99127.78
2022-10-01T13:48:44.443Z,99130.34
2022-10-01T13:52:46.085Z,99129.91
2022-10-01T13:56:47.737Z,99131.78
2022-10-01T14:00:54.662Z,99125.50
2022-10-01T14:05:03.696Z,99126.31
2022-10-01T14:09:14.252Z,99125.78
2022-10-01T14:13:34.616Z,99130.34
2022-10-01T14:17:36.941Z,99132.06
2022-10-01T14:21:45.308Z,99147.91
2022-10-01T14:25:49.260Z,99146.69
2022-10-01T14:30:02.666Z,99144.59
2022-10-01T14:34:28.259Z,99145.53
2022-10-01T14:38:30.955Z,99146.72
2022-10-01T14:42:32.516Z,99147.88
2022-10-01T14:46:35.858Z,99145.09
2022-10-01T14:50:38.357Z,99162.41
2022-10-01T14:54:47.316Z,99150.13
2022-10-01T14:58:55.606Z,99154.25
2022-10-01T15:03:06.156Z,99155.28
2022-10-01T15:07:13.764Z,99159.31
2022-10-01T15:11:29.128Z,99159.81
2022-10-01T15:15:39.758Z,99164.91
2022-10-01T15:19:45.018Z,99171.47
2022-10-01T15:23:48.311Z,99177.91
2022-10-01T15:27:50.051Z,99183.47
2022-10-01T15:31:55.816Z,99196.34
2022-10-01T15:36:16.836Z,99199.50
2022-10-01T15:40:27.357Z,99196.84
2022-10-01T15:44:40.843Z,99183.06
2022-10-01T15:48:42.652Z,99188.94
2022-10-01T15:52:50.746Z,99203.50
2022-10-01T15:56:52.674Z,99205.19
2022-10-01T16:01:26.533Z,99213.28
2022-10-01T16:05:45.700Z,99220.78
2022-10-01T16:09:56.836Z,99240.19
2022-10-01T16:14:44.190Z,99242.44
2022-10-01T16:18:53.979Z,99242.75
2022-10-01T16:23:34.545Z,99252.44
2022-10-01T16:28:21.558Z,99263.22
2022-10-01T16:32:23.274Z,99263.22
2022-10-01T16:36:26.329Z,99274.91
2022-10-01T16:40:30.832Z,99287.09
2022-10-01T16:44:34.286Z,99294.31
2022-10-01T16:48:35.819Z,99279.69
2022-10-01T16:52:38.069Z,99297.72
2022-10-01T16:56:41.348Z,99300.22
2022-10-01T17:00:42.999Z,99317.69
2022-10-01T17:04:44.762Z,99336.00
2022-10-01T17:08:46.298Z,99337.16
2022-10-01T17:12:48.367Z,99345.16
2022-10-01T17:16:50.990Z,99348.75
2022-10-01T17:20:52.696Z,99353.72
2022-10-01T17:24:54.263Z,99350.94
2022-10-01T17:28:55.977Z,99355.94
2022-10-01T17:33:00.041Z,99360.31
2022-10-01T17:37:01.677Z,99374.72
2022-10-01T17:41:03.787Z,99380.84
2022-10-01T17:45:08.869Z,99378.34
2022-10-01T17:49:13.017Z,99399.13
2022-10-01T17:53:15.223Z,99406.59
2022-10-01T17:57:17.332Z,99423.53
2022-10-01T18:01:21.084Z,99423.78
2022-10-01T18:05:22.838Z,99439.03
2022-10-01T18:09:25.266Z,99439.91
2022-10-01T18:13:26.878Z,99455.69
2022-10-01T18:17:29.297Z,99456.53
2022-10-01T18:21:32.800Z,99469.00
2022-10-01T18:25:34.487Z,99478.97
2022-10-01T18:29:36.168Z,99486.16
2022-10-01T18:33:39.261Z,99488.66
2022-10-01T18:37:46.727Z,99501.13
2022-10-01T18:41:49.455Z,99498.94
2022-10-01T18:46:21.041Z,99506.66
2022-10-01T18:50:48.631Z,99521.91
2022-10-01T18:55:21.385Z,99535.19
2022-10-01T18:59:52.526Z,99534.63
2022-10-01T19:04:03.357Z,99539.34
2022-10-01T19:08:46.707Z,99547.66
2022-10-01T19:13:13.909Z,99552.91
2022-10-01T19:18:00.557Z,99567.84
2022-10-01T19:22:05.116Z,99585.88
2022-10-01T19:26:13.950Z,99590.03
2022-10-01T19:30:17.714Z,99597.50
2022-10-01T19:34:41.527Z,99614.69
2022-10-01T19:38:46.456Z,99623.81
2022-10-01T19:43:01.667Z,99623.28
2022-10-01T19:47:23.616Z,99626.31
2022-10-01T19:51:30.257Z,99636.56
2022-10-01T19:55:38.788Z,99645.72
2022-10-01T19:59:40.897Z,99654.59
2022-10-01T20:04:02.240Z,99662.91
2022-10-01T20:08:29.907Z,99672.88
2022-10-01T20:12:31.423Z,99672.88
2022-10-01T20:16:47.560Z,99683.38
2022-10-01T20:21:37.845Z,99688.94
2022-10-01T20:26:01.304Z,99699.66
2022-10-01T20:30:05.969Z,99687.72
2022-10-01T20:34:18.027Z,99701.56
2022-10-01T20:38:24.497Z,99698.72
2022-10-01T20:42:34.726Z,99725.84
2022-10-01T20:46:43.401Z,99728.53
2022-10-01T20:50:48.949Z,99720.25
2022-10-01T20:54:53.044Z,99724.94
2022-10-01T20:59:02.257Z,99731.31
2022-10-01T21:03:22.304Z,99742.66
2022-10-01T21:07:48.878Z,99744.31
2022-10-01T21:11:59.640Z,99750.19
2022-10-01T21:16:38.235Z,99755.81
2022-10-01T21:21:16.636Z,99753.91
2022-10-01T21:25:44.174Z,99765.84
2022-10-01T21:30:07.573Z,99764.75
2022-10-01T21:34:19.763Z,99773.63
2022-10-01T21:38:32.630Z,99771.97
2022-10-01T21:43:14.708Z,99791.38
2022-10-01T21:47:30.436Z,99787.78
2022-10-01T21:51:58.552Z,99807.47
2022-10-01T21:56:23.974Z,99816.38
2022-10-01T22:00:26.425Z,99809.16
2022-10-01T22:04:40.056Z,99823.56
2022-10-01T22:09:13.934Z,99824.41
2022-10-01T22:13:30.709Z,99829.69
2022-10-01T22:17:33.925Z,99842.41
2022-10-01T22:21:42.163Z,99838.53
2022-10-01T22:25:51.265Z,99842.94
2022-10-01T22:30:00.663Z,99846.78
2022-10-01T22:34:09.377Z,99843.44
2022-10-01T22:38:19.974Z,99846.44
2022-10-01T22:42:30.349Z,99861.59
2022-10-01T22:46:56.130Z,99862.88
2022-10-01T22:51:20.055Z,99862.31
2022-10-01T22:55:47.312Z,99861.44
2022-10-01T23:00:01.547Z,99869.34
2022-10-01T23:04:19.175Z,99875.69
2022-10-01T23:08:43.393Z,99861.00
2022-10-01T23:13:25.835Z,99862.34
2022-10-01T23:17:40.824Z,99881.44
2022-10-01T23:22:13.125Z,99887.50
2022-10-01T23:26:28.352Z,99891.69
2022-10-01T23:31:08.848Z,99892.56
2022-10-01T23:35:21.796Z,99889.78
2022-10-01T23:39:51.264Z,99892.56
2022-10-01T23:43:57.246Z,99896.16
2022-10-01T23:48:21.214Z,99910.88
2022-10-01T23:52:31.715Z,99912.28
2022-10-01T23:56:51.881Z,99918.44
